Toronto, KS

7:34 PM CST on January 23, 2017 (GMT -0600)
Toronto, KS | | Change Station

Elev 971 ft 37.80 °N, 95.95 °W | Updated 4 minutes ago

Clear
Clear
43.1 °F
Feels Like 43 °F
N
0.0
Wind Variable Wind from SE
Gusts 2.0 mph

Today
High -- | Low -- °F
--% Chance of Precip.
Yesterday
High -- | Low -- °F
Precip. -- in
Pressure 29.82 in
Visibility 10.0 miles
Clouds Clear
Windchill 43 °F
Dew Point 36 °F
Humidity 76%
Rainfall 0.00 in
Snow Depth Not available.
7:34 AM 5:37 PM
Waning Crescent, 15% visible
METAR KCNU 240052Z AUTO 13005KT 10SM CLR 06/01 A2981 RMK AO2 SLP098 T00560011
Pressure 29.82 in
Visibility 10.0 miles
Clouds Clear
Windchill 43 °F
Dew Point 36 °F
Humidity 76%
Rainfall 0.00 in
Snow Depth Not available.
7:34 AM 5:37 PM
Waning Crescent, 15% visible
METAR KCNU 240052Z AUTO 13005KT 10SM CLR 06/01 A2981 RMK AO2 SLP098 T00560011

Get Your Daily Forecast Email!

Thanks for signing up!

Be on the lookout for a verification email in your inbox.

You'll start receiving the daily forecast at 8 AM.

×

10-Day Weather Forecast

Almanac

Astronomy

Jan. 23, 2017 Rise Set
Actual Time
Civil Twilight
Nautical Twilight
Astronomical Twilight
Moon
Length of Visible Light
Length of Day
Tomorrow will be .
, % of the Moon is Illuminated

Today's Extremes

State Highs State Lows

Community

WunderPhotos

Upload Photos

1,962,540 photos uploaded!

WunderBlog® & News

Nearby

Air Quality

  Air Quality AQ Index Pollutant
Not available.

Snow Depth

Station Depth Elevation

Earthquake Activity

City Distance Mag. Time & Date
Minimum magnitude displayed is 2.5.

Coastal Water Temperatures

Place Temperature

Stations

Nearby Weather Stations

Station Location Temp. Windchill Dew Point Humidity Wind Precip. Elev Updated Type
                   

Watches & Warnings

There are currently no watches in effect.